Portada
METAR-TAF:

METAR-TAF

Aeropuertos :

Jinotega, Nicaragua

latitud: 13-05N, longitud: 085-59W, altitud: 985 m

Observación

El informe se hizo hace 1 hora y 10 minutos, a las 17:00 UTC
Viento 4 kt del norte-noreste
Temperatura 22°C
Humedad 83%
Presión 1014 hPa
Visibilidad: 6000 m
Cielo nuboso a una altura de 1600 ft
neblina

METAR: MNJG 041700Z 03004KT 6000 BKN016 22/19 Q1014 BR

Hora: 12:10 (18:10 UTC)


TAF: falta

Observaciones y pronósticos meteorológicos de más de 4000 aeropuertos (mensajes METAR y TAF).

Los puntos amarillos y rojos representan las estaciones disponibles.

Ponga el ratón en el punto deseado para ver el nombre de la estación.

Haga clic para ver las observaciones y los pronósticos meteorológicos.

Para cambiar el mapa : haga clic en los botones verdes con una cruz de color negro para hacer un zoom, en el botón verde con un guión para alejar o en las flechas verdes para mapas adyacentes.


METAR-TAF: